Time;durP1;ratioP1;P1;durP2;ratioP2;P2;SDS_P1;SDS_P2;PMS_P1;PMS_P2;Temp;Humidity;BMP_temperature;BMP_pressure;BME280_temperature;BME280_humidity;BME280_pressure;Samples;Min_cycle;Max_cycle;Signal;HPM_P1;HPM_P2
2022/12/06 00:01:31;;;;;;;19.25;11.90;;;5.30;99.90;;;;;;4143014;28;20369;-65
2022/12/06 00:03:32;;;;;;;14.77;9.65;;;5.40;99.90;;;;;;4136517;28;20062;-66
2022/12/06 00:05:33;;;;;;;14.93;9.38;;;5.30;99.90;;;;;;4138853;28;20124;-65
2022/12/06 00:07:34;;;;;;;13.43;8.93;;;5.30;99.90;;;;;;4144664;28;20520;-65
2022/12/06 00:09:34;;;;;;;13.65;9.57;;;5.30;99.90;;;;;;4148926;28;20064;-65
2022/12/06 00:11:36;;;;;;;14.73;9.63;;;5.30;99.90;;;;;;4155515;28;20041;-65
2022/12/06 00:13:37;;;;;;;14.23;9.45;;;5.40;99.90;;;;;;4142376;28;20038;-65
2022/12/06 00:15:38;;;;;;;18.90;10.60;;;5.40;99.90;;;;;;4139332;28;20493;-65
2022/12/06 00:17:39;;;;;;;14.98;10.10;;;5.40;99.90;;;;;;4144110;28;20062;-65
2022/12/06 00:19:39;;;;;;;13.60;9.52;;;5.40;99.90;;;;;;4138900;28;20139;-66
2022/12/06 00:21:40;;;;;;;15.60;10.35;;;5.40;99.90;;;;;;4143387;28;20104;-66
2022/12/06 00:23:45;;;;;;;14.88;9.82;;;5.40;99.90;;;;;;4151950;28;20401;-65
2022/12/06 00:25:46;;;;;;;13.32;9.18;;;5.40;99.90;;;;;;4148112;28;20025;-65
2022/12/06 00:27:47;;;;;;;14.02;9.75;;;5.40;99.90;;;;;;4140925;28;20057;-65
2022/12/06 00:29:48;;;;;;;15.85;9.82;;;5.40;99.90;;;;;;4149416;28;20096;-65
2022/12/06 00:31:49;;;;;;;14.98;9.15;;;5.40;99.90;;;;;;4135852;28;20116;-66
2022/12/06 00:33:50;;;;;;;14.50;9.27;;;5.40;99.90;;;;;;4141194;28;20057;-66
2022/12/06 00:35:58;;;;;;;16.75;10.60;;;5.40;99.90;;;;;;4136935;28;20034;-67
2022/12/06 00:37:59;;;;;;;12.43;9.02;;;5.40;99.90;;;;;;4140671;28;20046;-65
2022/12/06 00:39:59;;;;;;;17.73;10.13;;;5.40;99.90;;;;;;4139444;28;20037;-66
2022/12/06 00:42:00;;;;;;;16.17;10.10;;;5.40;99.90;;;;;;4146253;28;20034;-65
2022/12/06 00:44:01;;;;;;;13.98;8.85;;;5.40;99.90;;;;;;4152537;28;20434;-65
2022/12/06 00:46:03;;;;;;;14.02;9.40;;;5.40;99.90;;;;;;4145659;28;20049;-66
2022/12/06 00:48:04;;;;;;;15.75;9.98;;;5.40;99.90;;;;;;4145478;28;20041;-66
2022/12/06 00:50:06;;;;;;;14.88;9.73;;;5.40;99.90;;;;;;4147501;28;20038;-66
2022/12/06 00:52:06;;;;;;;13.00;8.43;;;5.40;99.90;;;;;;4148889;28;20037;-66
2022/12/06 00:54:09;;;;;;;14.73;9.82;;;5.50;99.90;;;;;;4135580;28;20117;-65
2022/12/06 00:56:11;;;;;;;14.60;9.68;;;5.50;99.90;;;;;;4143217;28;23208;-65
2022/12/06 00:58:12;;;;;;;14.43;9.05;;;5.50;99.90;;;;;;4142759;28;20042;-65
2022/12/06 01:00:13;;;;;;;13.88;8.95;;;5.50;99.90;;;;;;4148977;28;20124;-65
2022/12/06 01:02:14;;;;;;;14.70;9.13;;;5.50;99.90;;;;;;4143436;28;20089;-65
2022/12/06 01:04:15;;;;;;;14.63;9.23;;;5.50;99.90;;;;;;4151991;28;20033;-65
2022/12/06 01:06:15;;;;;;;11.30;7.88;;;5.50;99.90;;;;;;4145634;28;20657;-66
2022/12/06 01:08:17;;;;;;;11.30;8.23;;;5.50;99.90;;;;;;4146324;28;20062;-65
2022/12/06 01:10:18;;;;;;;11.70;8.38;;;5.50;99.90;;;;;;4143890;28;20556;-66
2022/12/06 01:12:19;;;;;;;11.57;8.25;;;5.60;99.90;;;;;;4148807;28;20107;-65
2022/12/06 01:14:19;;;;;;;11.23;7.80;;;5.60;99.90;;;;;;4145737;28;20085;-65
2022/12/06 01:16:23;;;;;;;12.65;8.13;;;5.60;99.90;;;;;;4142925;28;20040;-65
2022/12/06 01:18:23;;;;;;;11.35;7.22;;;5.60;99.90;;;;;;4151869;28;20048;-65
2022/12/06 01:20:24;;;;;;;12.68;7.28;;;5.60;99.90;;;;;;4147399;28;20077;-65
2022/12/06 01:22:25;;;;;;;9.98;7.10;;;5.60;99.90;;;;;;4146956;28;20050;-66
2022/12/06 01:24:25;;;;;;;10.63;6.68;;;5.70;99.90;;;;;;4151151;28;20366;-65
2022/12/06 01:26:31;;;;;;;11.45;7.32;;;5.60;99.90;;;;;;4145005;28;20046;-66
2022/12/06 01:28:32;;;;;;;10.60;7.10;;;5.70;99.90;;;;;;4146883;28;20061;-65
2022/12/06 01:30:33;;;;;;;10.52;6.95;;;5.70;99.90;;;;;;4142527;28;20590;-65
2022/12/06 01:32:34;;;;;;;9.80;6.80;;;5.70;99.90;;;;;;4134228;28;20046;-65
2022/12/06 01:34:35;;;;;;;9.52;6.72;;;5.70;99.90;;;;;;4148390;28;20034;-66
2022/12/06 01:36:35;;;;;;;8.77;6.43;;;5.80;99.90;;;;;;4139798;28;20041;-66
2022/12/06 01:38:36;;;;;;;9.93;6.80;;;5.70;99.90;;;;;;4145739;28;20037;-65
2022/12/06 01:40:44;;;;;;;9.48;7.07;;;5.70;99.90;;;;;;4148110;28;20030;-65
2022/12/06 01:42:45;;;;;;;9.85;6.43;;;5.80;99.90;;;;;;4145716;28;20077;-65
2022/12/06 01:44:52;;;;;;;9.02;6.32;;;5.80;99.90;;;;;;4150942;28;20033;-66
2022/12/06 01:46:53;;;;;;;9.20;6.65;;;5.80;99.90;;;;;;4139910;28;20038;-66
2022/12/06 01:49:16;;;;;;;8.93;6.68;;;5.80;99.90;;;;;;4146115;28;20041;-66
2022/12/06 01:51:17;;;;;;;10.32;6.55;;;5.80;99.90;;;;;;4149239;28;20116;-65
2022/12/06 01:53:18;;;;;;;9.50;6.50;;;5.80;99.90;;;;;;4149601;28;20459;-65
2022/12/06 01:55:21;;;;;;;9.65;6.80;;;5.80;99.90;;;;;;4144156;28;20030;-65
2022/12/06 01:57:22;;;;;;;9.45;6.25;;;5.80;99.90;;;;;;4147102;28;20056;-67
2022/12/06 01:59:24;;;;;;;12.10;6.90;;;5.90;99.90;;;;;;4143764;28;20477;-66
2022/12/06 02:01:27;;;;;;;9.77;7.25;;;5.80;99.90;;;;;;4150075;28;20064;-66
2022/12/06 02:03:30;;;;;;;9.13;6.35;;;5.80;99.90;;;;;;4141835;28;20049;-65
2022/12/06 02:05:31;;;;;;;7.75;5.57;;;5.80;99.90;;;;;;4146315;28;20052;-65
2022/12/06 02:07:32;;;;;;;7.95;5.10;;;5.90;99.90;;;;;;4143948;28;20034;-66
2022/12/06 02:09:34;;;;;;;8.68;5.65;;;5.90;99.90;;;;;;4144487;28;20091;-66
2022/12/06 02:11:35;;;;;;;9.90;6.00;;;5.90;99.90;;;;;;4146460;28;20106;-66
2022/12/06 02:13:37;;;;;;;7.68;5.57;;;5.90;99.90;;;;;;4144069;28;20034;-65
2022/12/06 02:16:00;;;;;;;7.75;4.70;;;5.90;99.90;;;;;;4143514;28;20439;-65
2022/12/06 02:18:12;;;;;;;9.82;6.10;;;6.00;99.90;;;;;;4142741;28;20052;-65
2022/12/06 02:20:24;;;;;;;8.80;5.72;;;6.00;99.90;;;;;;4144797;28;20041;-65
2022/12/06 02:22:44;;;;;;;8.38;5.80;;;6.00;99.90;;;;;;4143716;28;20069;-66
2022/12/06 02:24:45;;;;;;;6.78;5.07;;;5.90;99.90;;;;;;4145871;28;20423;-65
2022/12/06 02:26:51;;;;;;;7.72;4.78;;;6.00;99.90;;;;;;4138463;28;20048;-65
2022/12/06 02:28:52;;;;;;;9.43;5.57;;;6.00;99.90;;;;;;4140685;28;20038;-66
2022/12/06 02:31:01;;;;;;;8.48;5.03;;;6.00;99.90;;;;;;4144617;28;20045;-66
2022/12/06 02:33:10;;;;;;;8.77;5.20;;;6.00;99.90;;;;;;4130995;28;20070;-65
2022/12/06 02:35:34;;;;;;;8.45;5.53;;;6.00;99.90;;;;;;4128742;28;20062;-66
2022/12/06 02:37:55;;;;;;;8.38;4.72;;;6.00;99.90;;;;;;4126692;28;20173;-66
2022/12/06 02:40:02;;;;;;;8.48;5.40;;;6.00;99.90;;;;;;4132023;28;20172;-66
2022/12/06 02:42:07;;;;;;;7.55;5.40;;;6.00;99.90;;;;;;4125852;28;20044;-66
2022/12/06 02:44:17;;;;;;;10.55;5.63;;;6.00;99.90;;;;;;4128281;28;20092;-66
2022/12/06 02:46:21;;;;;;;8.88;6.18;;;6.00;99.90;;;;;;4126062;28;20046;-65
2022/12/06 02:48:24;;;;;;;9.07;5.22;;;6.00;99.90;;;;;;4127717;28;20046;-65
2022/12/06 02:50:30;;;;;;;8.50;5.55;;;6.00;99.90;;;;;;4128984;28;20035;-66
2022/12/06 02:52:33;;;;;;;8.50;5.43;;;6.00;99.90;;;;;;4126274;28;20117;-65
2022/12/06 02:54:33;;;;;;;8.07;5.82;;;6.00;99.90;;;;;;4127202;28;20038;-66
2022/12/06 02:56:34;;;;;;;8.15;4.90;;;6.00;99.90;;;;;;4128123;28;20073;-66
2022/12/06 02:58:36;;;;;;;9.85;5.72;;;6.00;99.90;;;;;;4128826;28;20056;-66
2022/12/06 03:00:42;;;;;;;9.90;6.20;;;6.10;99.90;;;;;;4127014;28;20042;-66
2022/12/06 03:02:43;;;;;;;10.80;5.97;;;6.00;99.90;;;;;;4130942;28;20048;-65
2022/12/06 03:05:08;;;;;;;6.13;4.63;;;6.10;99.90;;;;;;4125757;28;20061;-65
2022/12/06 03:07:22;;;;;;;9.07;5.40;;;6.10;99.90;;;;;;4129551;28;20057;-65
2022/12/06 03:10:05;;;;;;;9.27;5.15;;;6.10;99.90;;;;;;4126737;28;20050;-66
2022/12/06 03:12:38;;;;;;;8.17;5.00;;;6.10;99.90;;;;;;4136188;28;20041;-66
2022/12/06 03:14:44;;;;;;;8.77;5.38;;;6.10;99.90;;;;;;4129325;28;20125;-66
2022/12/06 03:16:58;;;;;;;7.45;4.95;;;6.10;99.90;;;;;;4128503;28;20050;-65
2022/12/06 03:19:07;;;;;;;6.78;4.88;;;6.10;99.90;;;;;;4121164;28;20390;-65
2022/12/06 03:21:16;;;;;;;8.48;5.22;;;6.20;99.90;;;;;;4132711;28;20034;-66
2022/12/06 03:23:23;;;;;;;8.02;4.82;;;6.20;99.90;;;;;;4127310;28;20070;-65
2022/12/06 03:25:45;;;;;;;8.70;5.35;;;6.20;99.90;;;;;;4116129;28;20041;-65
2022/12/06 03:27:47;;;;;;;8.48;5.47;;;6.20;99.90;;;;;;4134281;28;20101;-65
2022/12/06 03:29:58;;;;;;;7.30;5.13;;;6.20;99.90;;;;;;4136544;28;20031;-65
2022/12/06 03:32:03;;;;;;;9.23;6.00;;;6.20;99.90;;;;;;4127845;28;20053;-66
2022/12/06 03:34:20;;;;;;;10.57;5.65;;;6.20;99.90;;;;;;4140728;28;20038;-65
2022/12/06 03:36:22;;;;;;;8.90;5.35;;;6.20;99.90;;;;;;4125085;28;20571;-65
2022/12/06 03:38:31;;;;;;;9.60;5.63;;;6.30;99.90;;;;;;4140006;28;20492;-65
2022/12/06 03:40:34;;;;;;;8.02;5.47;;;6.20;99.90;;;;;;4128747;28;20124;-65
2022/12/06 03:42:35;;;;;;;8.10;5.35;;;6.20;99.90;;;;;;4132943;28;20049;-66
2022/12/06 03:44:36;;;;;;;10.07;5.40;;;6.30;99.90;;;;;;4133108;28;20034;-66
2022/12/06 03:46:43;;;;;;;9.38;5.93;;;6.30;99.90;;;;;;4127728;28;20128;-66
2022/12/06 03:49:02;;;;;;;10.57;5.70;;;6.30;99.90;;;;;;4135148;28;20065;-66
2022/12/06 03:51:07;;;;;;;8.82;6.03;;;6.30;99.90;;;;;;4129500;28;20038;-66
2022/12/06 03:53:07;;;;;;;9.15;6.20;;;6.30;99.90;;;;;;4132589;28;20469;-65
2022/12/06 03:55:08;;;;;;;7.10;5.10;;;6.30;99.90;;;;;;4133504;28;20092;-66
2022/12/06 03:57:09;;;;;;;9.05;6.22;;;6.20;99.90;;;;;;4132936;28;20038;-65
2022/12/06 03:59:10;;;;;;;10.77;6.65;;;6.30;99.90;;;;;;4139122;28;20034;-66
2022/12/06 04:01:11;;;;;;;9.73;6.43;;;6.20;99.90;;;;;;4134128;28;20038;-65
2022/12/06 04:03:11;;;;;;;9.27;5.80;;;6.20;99.90;;;;;;4132706;28;20034;-65
2022/12/06 04:05:12;;;;;;;8.48;5.57;;;6.30;99.90;;;;;;4133486;28;20041;-66
2022/12/06 04:07:13;;;;;;;9.30;6.22;;;6.30;99.90;;;;;;4128805;28;20041;-66
2022/12/06 04:11:33;;;;;;;12.02;6.65;;;6.30;99.90;;;;;;4124846;28;20038;-65
2022/12/06 04:13:34;;;;;;;10.77;6.93;;;6.20;99.90;;;;;;4132769;28;20428;-66
2022/12/06 04:15:37;;;;;;;9.35;6.55;;;6.20;99.90;;;;;;4134097;28;20042;-66
2022/12/06 04:19:58;;;;;;;10.45;6.75;;;6.20;99.90;;;;;;4137853;28;20026;-65
2022/12/06 04:24:18;;;;;;;8.35;5.53;;;6.20;99.90;;;;;;4144395;28;20029;-66
2022/12/06 04:26:21;;;;;;;8.23;5.90;;;6.20;99.90;;;;;;4131131;28;20049;-66
2022/12/06 04:39:58;;;;;;;8.80;5.65;;;6.30;99.90;;;;;;4145898;28;20057;-66
2022/12/06 04:44:18;;;;;;;7.75;5.47;;;6.30;99.90;;;;;;4145079;28;20034;-66
2022/12/06 04:46:18;;;;;;;9.48;6.45;;;6.30;99.90;;;;;;4136541;28;20116;-65
2022/12/06 04:48:19;;;;;;;7.70;5.63;;;6.30;99.90;;;;;;4148895;28;20087;-66
2022/12/06 04:50:20;;;;;;;6.97;5.07;;;6.30;99.90;;;;;;4148480;28;20038;-66
2022/12/06 04:52:20;;;;;;;7.82;5.32;;;6.30;99.90;;;;;;4155469;28;20469;-66
2022/12/06 04:54:22;;;;;;;7.47;5.15;;;6.30;99.90;;;;;;4155984;28;20038;-66
2022/12/06 04:56:22;;;;;;;9.20;6.10;;;6.30;99.90;;;;;;4141565;28;20029;-66
2022/12/06 04:58:23;;;;;;;9.35;5.93;;;6.30;99.90;;;;;;4134882;28;20046;-66
2022/12/06 05:00:24;;;;;;;6.82;5.00;;;6.30;99.90;;;;;;4138960;28;20128;-66
2022/12/06 05:02:24;;;;;;;9.73;6.28;;;6.30;99.90;;;;;;4152562;28;20042;-66
2022/12/06 05:04:25;;;;;;;8.60;5.45;;;6.30;99.90;;;;;;4149911;28;20037;-67
2022/12/06 05:06:25;;;;;;;11.05;7.13;;;6.40;99.90;;;;;;4141784;28;20046;-68
2022/12/06 05:08:26;;;;;;;9.25;6.00;;;6.30;99.90;;;;;;4136972;28;20083;-66
2022/12/06 05:10:26;;;;;;;9.43;5.90;;;6.30;99.90;;;;;;4145011;28;20042;-66
2022/12/06 05:12:27;;;;;;;9.70;6.53;;;6.40;99.90;;;;;;4137066;28;20440;-66
2022/12/06 05:14:28;;;;;;;10.85;6.75;;;6.40;99.90;;;;;;4150514;28;20409;-65
2022/12/06 05:16:28;;;;;;;11.85;7.18;;;6.40;99.90;;;;;;4140568;28;20042;-66
2022/12/06 05:18:29;;;;;;;9.85;6.03;;;6.30;99.90;;;;;;4142281;28;20161;-66
2022/12/06 05:20:30;;;;;;;10.32;6.43;;;6.40;99.90;;;;;;4137639;28;20038;-65
2022/12/06 05:22:33;;;;;;;9.55;6.28;;;6.40;99.90;;;;;;4133980;28;20049;-66
2022/12/06 05:24:34;;;;;;;12.00;6.50;;;6.40;99.90;;;;;;4148904;28;20042;-66
2022/12/06 05:26:35;;;;;;;8.82;5.88;;;6.40;99.90;;;;;;4144903;28;20545;-66
2022/12/06 05:28:35;;;;;;;9.38;6.20;;;6.40;99.90;;;;;;4147096;28;20038;-66
2022/12/06 05:30:36;;;;;;;10.50;6.15;;;6.40;99.90;;;;;;4142084;28;20514;-66
2022/12/06 05:32:38;;;;;;;9.45;6.55;;;6.40;99.90;;;;;;4144244;28;20128;-66
2022/12/06 05:34:38;;;;;;;8.70;5.57;;;6.40;99.90;;;;;;4141174;28;20034;-66
2022/12/06 05:36:39;;;;;;;10.82;6.38;;;6.40;99.90;;;;;;4140619;28;20571;-66
2022/12/06 05:38:39;;;;;;;12.07;7.32;;;6.40;99.90;;;;;;4144827;28;20109;-66
2022/12/06 05:40:41;;;;;;;15.82;8.48;;;6.40;99.90;;;;;;4143770;28;20046;-66
2022/12/06 05:42:42;;;;;;;10.32;6.53;;;6.40;99.90;;;;;;4143359;28;20545;-66
2022/12/06 05:44:42;;;;;;;10.57;6.82;;;6.40;99.90;;;;;;4142604;28;20038;-66
2022/12/06 05:46:43;;;;;;;11.05;6.78;;;6.40;99.90;;;;;;4140612;28;20099;-65
2022/12/06 05:48:44;;;;;;;11.52;7.53;;;6.40;99.90;;;;;;4142368;28;20053;-66
2022/12/06 05:50:48;;;;;;;10.73;6.45;;;6.50;99.90;;;;;;4143337;28;20037;-66
2022/12/06 05:52:56;;;;;;;10.70;6.40;;;6.40;99.90;;;;;;4144661;28;20065;-66
2022/12/06 05:54:57;;;;;;;11.68;7.88;;;6.40;99.90;;;;;;4142660;28;20030;-66
2022/12/06 05:56:57;;;;;;;10.95;6.60;;;6.40;99.90;;;;;;4140262;28;20046;-66
2022/12/06 05:58:58;;;;;;;13.13;7.55;;;6.40;99.90;;;;;;4142738;28;20061;-66
2022/12/06 06:00:58;;;;;;;14.23;7.18;;;6.40;99.90;;;;;;4143432;28;20049;-66
2022/12/06 06:02:59;;;;;;;12.25;7.57;;;6.50;99.90;;;;;;4142163;28;20069;-66
2022/12/06 06:05:00;;;;;;;10.15;6.50;;;6.50;99.90;;;;;;4143003;28;20037;-66
2022/12/06 06:07:00;;;;;;;12.82;7.13;;;6.50;99.90;;;;;;4138089;28;20027;-66
2022/12/06 06:09:01;;;;;;;10.77;6.82;;;6.50;99.90;;;;;;4141436;28;20172;-66
2022/12/06 06:11:02;;;;;;;12.10;7.68;;;6.50;99.90;;;;;;4144044;28;20037;-66
2022/12/06 06:13:03;;;;;;;12.70;7.63;;;6.40;99.90;;;;;;4143956;28;20543;-66
2022/12/06 06:15:06;;;;;;;13.40;7.45;;;6.50;99.90;;;;;;4140759;28;20097;-66
2022/12/06 06:17:06;;;;;;;12.50;8.02;;;6.50;99.90;;;;;;4140949;28;20041;-66
2022/12/06 06:19:07;;;;;;;12.25;7.40;;;6.40;99.90;;;;;;4142647;28;20118;-66
2022/12/06 06:21:07;;;;;;;10.27;7.00;;;6.40;99.90;;;;;;4140113;28;20046;-66
2022/12/06 06:23:08;;;;;;;10.95;7.07;;;6.40;99.90;;;;;;4136954;28;20033;-66
2022/12/06 06:25:09;;;;;;;10.25;6.60;;;6.40;99.90;;;;;;4142162;28;20053;-66
2022/12/06 06:27:09;;;;;;;10.75;6.88;;;6.40;99.90;;;;;;4140863;28;20037;-65
2022/12/06 06:29:10;;;;;;;9.65;6.90;;;6.50;99.90;;;;;;4144127;28;20075;-65
2022/12/06 06:31:11;;;;;;;13.30;8.13;;;6.50;99.90;;;;;;4143392;28;20071;-65
2022/12/06 06:33:12;;;;;;;10.88;7.03;;;6.40;99.90;;;;;;4146597;28;20044;-65
2022/12/06 06:35:13;;;;;;;11.18;6.90;;;6.40;99.90;;;;;;4144083;28;20127;-65
2022/12/06 06:37:13;;;;;;;10.70;7.03;;;6.40;99.90;;;;;;4147337;28;20045;-65
2022/12/06 06:39:14;;;;;;;10.00;6.50;;;6.40;99.90;;;;;;4141529;28;20044;-65
2022/12/06 06:41:14;;;;;;;10.38;6.78;;;6.40;99.90;;;;;;4145041;28;20389;-65
2022/12/06 06:43:18;;;;;;;10.10;6.50;;;6.40;99.90;;;;;;4150366;28;20076;-65
2022/12/06 06:45:19;;;;;;;10.07;6.18;;;6.50;99.90;;;;;;4143352;28;20540;-65
2022/12/06 06:47:21;;;;;;;9.63;6.43;;;6.50;99.90;;;;;;4142907;28;20096;-65
2022/12/06 06:49:21;;;;;;;11.57;7.82;;;6.50;99.90;;;;;;4144198;28;20528;-65
2022/12/06 06:51:22;;;;;;;11.45;7.20;;;6.50;99.90;;;;;;4145783;28;20034;-65
2022/12/06 06:53:23;;;;;;;11.68;7.38;;;6.50;99.90;;;;;;4147463;28;20088;-65
2022/12/06 06:55:24;;;;;;;11.32;6.55;;;6.50;99.90;;;;;;4147773;28;20120;-64
2022/12/06 06:57:24;;;;;;;10.77;6.18;;;6.50;99.90;;;;;;4146106;28;20070;-65
2022/12/06 06:59:25;;;;;;;11.35;7.00;;;6.50;99.90;;;;;;4143586;28;20387;-64
2022/12/06 07:01:26;;;;;;;8.57;6.43;;;6.50;99.90;;;;;;4137710;28;20173;-64
2022/12/06 07:03:28;;;;;;;11.57;7.07;;;6.50;99.90;;;;;;4143733;28;20042;-65
2022/12/06 07:05:28;;;;;;;8.75;6.13;;;6.50;99.90;;;;;;4142533;28;20042;-65
2022/12/06 07:07:30;;;;;;;8.93;5.88;;;6.50;99.90;;;;;;4146654;28;20151;-65
2022/12/06 07:09:31;;;;;;;12.88;7.72;;;6.50;99.90;;;;;;4145096;28;20436;-65
2022/12/06 07:11:32;;;;;;;11.95;6.95;;;6.50;99.90;;;;;;4158369;28;20033;-65
2022/12/06 07:13:32;;;;;;;11.13;7.30;;;6.50;99.90;;;;;;4146274;28;20033;-65
2022/12/06 07:15:34;;;;;;;9.25;6.43;;;6.50;99.90;;;;;;4142739;28;20144;-65
2022/12/06 07:17:35;;;;;;;11.57;6.75;;;6.50;99.90;;;;;;4144721;28;20121;-65
2022/12/06 07:19:35;;;;;;;10.77;6.97;;;6.50;99.90;;;;;;4146772;28;20034;-65
2022/12/06 07:21:36;;;;;;;11.57;6.78;;;6.50;99.90;;;;;;4143675;28;20432;-65
2022/12/06 07:23:36;;;;;;;11.70;6.85;;;6.50;99.90;;;;;;4143768;28;20396;-65
2022/12/06 07:25:37;;;;;;;11.68;6.90;;;6.50;99.90;;;;;;4143294;28;20041;-65
2022/12/06 07:27:38;;;;;;;12.55;7.35;;;6.50;99.90;;;;;;4146132;28;20069;-65
2022/12/06 07:29:38;;;;;;;9.23;6.43;;;6.50;99.90;;;;;;4143790;28;20062;-65
2022/12/06 07:31:39;;;;;;;10.50;6.47;;;6.40;99.90;;;;;;4144683;28;20083;-65
2022/12/06 07:33:44;;;;;;;9.20;6.60;;;6.50;99.90;;;;;;4143390;28;20046;-65
2022/12/06 07:35:50;;;;;;;9.73;6.57;;;6.50;99.90;;;;;;4145948;28;20041;-65
2022/12/06 07:37:51;;;;;;;11.60;6.93;;;6.50;99.90;;;;;;4139012;28;20177;-65
2022/12/06 07:39:51;;;;;;;9.68;6.22;;;6.50;99.90;;;;;;4142219;28;20488;-65
2022/12/06 07:46:32;;;;;;;10.32;6.28;;;6.50;99.90;;;;;;4138060;28;20039;-66
2022/12/06 07:48:33;;;;;;;9.85;6.10;;;6.50;99.90;;;;;;4136489;28;20048;-65
2022/12/06 07:50:33;;;;;;;9.32;6.38;;;6.50;99.90;;;;;;4146213;28;20048;-65
2022/12/06 07:52:35;;;;;;;13.75;7.55;;;6.50;99.90;;;;;;4148363;28;20080;-65
2022/12/06 07:54:36;;;;;;;12.20;6.57;;;6.50;99.90;;;;;;4143832;28;20033;-65
2022/12/06 07:56:37;;;;;;;14.48;7.15;;;6.50;99.90;;;;;;4141157;28;20408;-65
2022/12/06 07:58:37;;;;;;;11.82;6.35;;;6.50;99.90;;;;;;4143338;28;20111;-65
2022/12/06 08:00:40;;;;;;;9.32;6.35;;;6.50;99.90;;;;;;4145756;28;20043;-65
2022/12/06 08:02:41;;;;;;;;;;;6.50;99.90;;;;;;4140345;28;20056;-65
2022/12/06 08:04:41;;;;;;;11.88;5.93;;;6.50;99.90;;;;;;4139779;28;21150;-65
2022/12/06 08:06:42;;;;;;;7.68;5.25;;;6.50;99.90;;;;;;4148205;28;20061;-65
2022/12/06 08:08:42;;;;;;;12.07;6.80;;;6.50;99.90;;;;;;4140137;28;20039;-65
2022/12/06 08:10:43;;;;;;;10.52;6.53;;;6.50;99.90;;;;;;4155081;28;20099;-65
2022/12/06 08:12:43;;;;;;;10.95;7.20;;;6.50;99.90;;;;;;4143272;28;20405;-65
2022/12/06 08:14:44;;;;;;;9.77;6.25;;;6.50;99.90;;;;;;4141879;28;20030;-65
2022/12/06 08:16:44;;;;;;;9.05;6.57;;;6.50;99.90;;;;;;4131549;28;20033;-65
2022/12/06 08:18:45;;;;;;;9.30;6.43;;;6.50;99.90;;;;;;4146785;28;20054;-65
2022/12/06 08:20:46;;;;;;;11.75;6.88;;;6.50;99.90;;;;;;4139385;28;20061;-65
2022/12/06 08:22:46;;;;;;;10.07;6.63;;;6.50;99.90;;;;;;4138135;28;20042;-65
2022/12/06 08:24:47;;;;;;;12.05;7.20;;;6.50;99.90;;;;;;4150462;28;20042;-65
2022/12/06 08:26:48;;;;;;;9.68;6.57;;;6.50;99.90;;;;;;4139401;28;20038;-65
2022/12/06 08:28:49;;;;;;;12.02;7.47;;;6.50;99.90;;;;;;4148344;28;20042;-65
2022/12/06 08:30:49;;;;;;;10.48;7.30;;;6.50;99.90;;;;;;4147378;28;20049;-65
2022/12/06 08:32:50;;;;;;;12.65;7.13;;;6.40;99.90;;;;;;4141648;28;20050;-65
2022/12/06 08:34:51;;;;;;;11.90;6.70;;;6.40;99.90;;;;;;4142013;28;20030;-66
2022/12/06 08:36:51;;;;;;;10.77;7.13;;;6.40;99.90;;;;;;4141750;28;20072;-65
2022/12/06 08:38:52;;;;;;;10.60;6.07;;;6.40;99.90;;;;;;4142646;28;20042;-65
2022/12/06 08:40:52;;;;;;;9.00;5.72;;;6.50;99.90;;;;;;4140593;28;20033;-65
2022/12/06 08:42:53;;;;;;;9.90;5.85;;;6.50;99.90;;;;;;4141016;28;20041;-65
2022/12/06 08:44:53;;;;;;;8.52;5.80;;;6.50;99.90;;;;;;4143433;28;20049;-65
2022/12/06 08:46:55;;;;;;;8.30;5.47;;;6.50;99.90;;;;;;4143995;28;20034;-65
2022/12/06 08:48:56;;;;;;;7.35;5.40;;;6.60;99.90;;;;;;4145356;28;20038;-65
2022/12/06 08:51:01;;;;;;;7.75;5.78;;;6.50;99.90;;;;;;4143247;28;20045;-65
2022/12/06 08:53:02;;;;;;;9.75;5.15;;;6.60;99.90;;;;;;4144750;28;20037;-65
2022/12/06 08:55:03;;;;;;;12.23;6.63;;;6.60;99.90;;;;;;4148884;28;20026;-66
2022/12/06 08:57:03;;;;;;;7.60;5.22;;;6.60;99.90;;;;;;4138910;28;20041;-66
2022/12/06 08:59:04;;;;;;;10.63;5.68;;;6.50;99.90;;;;;;4140184;28;20038;-65
2022/12/06 09:01:13;;;;;;;10.45;5.45;;;6.60;99.90;;;;;;4141749;28;20033;-66
2022/12/06 09:03:14;;;;;;;9.73;5.70;;;6.60;99.90;;;;;;4143065;28;20476;-65
2022/12/06 09:05:14;;;;;;;8.82;5.40;;;6.50;99.90;;;;;;4144999;28;20034;-65
2022/12/06 09:07:15;;;;;;;7.65;4.80;;;6.60;99.90;;;;;;4145944;28;20048;-65
2022/12/06 09:09:17;;;;;;;8.27;4.65;;;6.60;99.90;;;;;;4149877;28;20112;-65
2022/12/06 09:11:18;;;;;;;6.57;4.85;;;6.60;99.90;;;;;;4144658;28;20038;-65
2022/12/06 09:13:19;;;;;;;8.45;5.43;;;6.60;99.90;;;;;;4140261;28;20049;-65
2022/12/06 09:15:19;;;;;;;7.55;4.95;;;6.60;99.90;;;;;;4141574;28;20037;-65
2022/12/06 09:17:20;;;;;;;7.47;4.82;;;6.60;99.90;;;;;;4141291;28;20041;-65
2022/12/06 09:19:21;;;;;;;10.52;5.88;;;6.60;99.90;;;;;;4126307;28;20131;-65
2022/12/06 09:21:24;;;;;;;12.27;5.72;;;6.60;99.90;;;;;;4120146;28;20272;-65
2022/12/06 09:23:26;;;;;;;11.13;5.47;;;6.60;99.90;;;;;;4142936;28;20038;-65
2022/12/06 09:25:26;;;;;;;7.55;5.38;;;6.60;99.90;;;;;;4144305;28;20532;-66
2022/12/06 09:27:29;;;;;;;12.77;6.25;;;6.60;99.90;;;;;;4142158;28;20096;-65
2022/12/06 09:29:29;;;;;;;10.38;5.97;;;6.50;99.90;;;;;;4141492;28;20045;-66
2022/12/06 09:31:30;;;;;;;10.48;5.72;;;6.50;99.90;;;;;;4139866;28;20074;-67
2022/12/06 09:33:31;;;;;;;9.90;5.72;;;6.50;99.90;;;;;;4148882;28;20049;-65
2022/12/06 09:35:32;;;;;;;7.88;5.30;;;6.50;99.90;;;;;;4143184;28;20417;-66
2022/12/06 09:37:33;;;;;;;8.88;5.80;;;6.50;99.90;;;;;;4139490;28;20144;-66
2022/12/06 09:39:42;;;;;;;7.97;5.38;;;6.50;99.90;;;;;;4142287;28;20112;-66
2022/12/06 09:42:17;;;;;;;9.75;5.28;;;6.60;99.90;;;;;;4140787;28;20038;-65
2022/12/06 09:44:47;;;;;;;7.88;5.03;;;6.60;99.90;;;;;;4140211;28;20049;-65
2022/12/06 09:47:14;;;;;;;6.60;4.75;;;6.60;99.90;;;;;;4139474;28;20401;-65
2022/12/06 09:49:24;;;;;;;7.25;4.85;;;6.60;99.90;;;;;;4133068;28;20053;-65
2022/12/06 09:51:44;;;;;;;8.80;4.72;;;6.60;99.90;;;;;;4140522;28;20125;-65
2022/12/06 09:54:03;;;;;;;9.52;5.80;;;6.60;99.90;;;;;;4141837;28;20046;-65
2022/12/06 09:56:29;;;;;;;8.00;5.38;;;6.70;99.90;;;;;;4139023;28;20106;-66
2022/12/06 09:58:51;;;;;;;7.30;4.65;;;6.70;99.90;;;;;;4139591;28;20041;-66
2022/12/06 10:01:09;;;;;;;9.45;5.25;;;6.70;99.90;;;;;;4139210;28;20045;-65
2022/12/06 10:03:48;;;;;;;9.25;5.35;;;6.70;99.90;;;;;;4140033;28;20041;-66
2022/12/06 10:06:01;;;;;;;9.23;5.50;;;6.80;99.90;;;;;;4141158;28;20098;-65
2022/12/06 10:08:23;;;;;;;10.02;4.90;;;6.70;99.90;;;;;;4146493;28;20112;-66
2022/12/06 10:10:49;;;;;;;6.88;5.03;;;6.80;99.90;;;;;;4141858;28;20781;-65
2022/12/06 10:13:01;;;;;;;8.77;5.03;;;6.80;99.90;;;;;;4137798;28;20493;-65
2022/12/06 10:15:21;;;;;;;9.75;5.20;;;6.80;99.90;;;;;;4135595;28;20033;-66
2022/12/06 10:17:59;;;;;;;6.68;5.13;;;6.90;99.90;;;;;;4139683;28;20050;-65
2022/12/06 10:20:07;;;;;;;8.02;4.82;;;6.90;99.90;;;;;;4142472;28;20046;-66
2022/12/06 10:22:28;;;;;;;9.65;5.00;;;6.90;99.90;;;;;;4139829;28;20473;-65
2022/12/06 10:24:50;;;;;;;9.02;4.80;;;6.90;99.90;;;;;;4130939;28;20045;-65
2022/12/06 10:26:52;;;;;;;9.05;5.40;;;6.90;99.90;;;;;;4138690;28;20069;-65
2022/12/06 10:29:38;;;;;;;13.93;6.18;;;7.00;99.90;;;;;;4141082;28;20508;-65
2022/12/06 10:32:20;;;;;;;8.93;5.35;;;7.00;99.90;;;;;;4135726;28;20104;-65
2022/12/06 10:34:45;;;;;;;6.43;4.30;;;7.00;99.90;;;;;;4121424;28;20041;-65
2022/12/06 10:37:15;;;;;;;7.72;4.60;;;7.00;99.90;;;;;;4140124;28;20477;-65
2022/12/06 10:39:21;;;;;;;7.00;4.32;;;7.00;99.90;;;;;;4138680;28;20465;-65
2022/12/06 10:41:42;;;;;;;7.00;5.07;;;7.00;99.90;;;;;;4139973;28;20066;-65
2022/12/06 10:44:10;;;;;;;5.97;4.72;;;7.00;99.90;;;;;;4137322;28;20034;-65
2022/12/06 10:49:05;;;;;;;6.85;4.82;;;7.10;99.90;;;;;;4140545;28;20026;-65
2022/12/06 10:51:14;;;;;;;7.82;4.90;;;7.10;99.90;;;;;;4139373;28;20042;-66
2022/12/06 10:53:17;;;;;;;7.65;4.82;;;7.10;99.90;;;;;;4139790;28;20034;-66
2022/12/06 10:55:45;;;;;;;10.07;4.90;;;7.10;99.90;;;;;;4139084;28;20074;-66
2022/12/06 10:58:05;;;;;;;6.05;3.88;;;7.10;99.90;;;;;;4138415;28;20409;-66
2022/12/06 11:00:19;;;;;;;6.65;4.15;;;7.20;99.90;;;;;;4138264;28;20041;-67
2022/12/06 11:02:41;;;;;;;8.52;4.57;;;7.20;99.90;;;;;;4138887;28;20042;-66
2022/12/06 11:04:45;;;;;;;9.77;4.63;;;7.20;99.90;;;;;;4138347;28;20030;-66
2022/12/06 11:06:52;;;;;;;6.97;4.60;;;7.20;99.90;;;;;;4139407;28;20038;-66
2022/12/06 11:08:57;;;;;;;8.77;4.10;;;7.20;99.90;;;;;;4140692;28;20125;-66
2022/12/06 11:10:58;;;;;;;5.45;3.63;;;7.20;99.90;;;;;;4139601;28;20037;-66
2022/12/06 11:13:37;;;;;;;6.43;4.00;;;7.20;99.90;;;;;;4140782;28;20038;-66
2022/12/06 11:15:41;;;;;;;6.18;4.00;;;7.30;99.90;;;;;;4138240;28;20034;-66
2022/12/06 11:17:46;;;;;;;5.53;3.80;;;7.20;99.90;;;;;;4141006;28;20068;-66
2022/12/06 11:19:59;;;;;;;6.43;4.57;;;7.30;99.90;;;;;;4140102;28;20477;-66
2022/12/06 11:22:03;;;;;;;;;;;7.20;99.90;;;;;;4136482;28;20153;-67
2022/12/06 11:24:27;;;;;;;6.03;4.07;;;7.30;99.90;;;;;;4139606;28;19917;-67